sensor_id;sensor_type;location;lat;lon;timestamp;pressure;altitude;pressure_sealevel;temperature
61189;BMP280;47054;39.716;2.904;2023-07-16T00:00:38;100044.28;;;29.06
61189;BMP280;47054;39.716;2.904;2023-07-16T00:03:23;100036.84;;;29.06
61189;BMP280;47054;39.716;2.904;2023-07-16T00:06:07;100041.41;;;29.09
61189;BMP280;47054;39.716;2.904;2023-07-16T00:08:52;100042.13;;;29.10
61189;BMP280;47054;39.716;2.904;2023-07-16T00:11:37;100043.19;;;29.12
61189;BMP280;47054;39.716;2.904;2023-07-16T00:14:21;100048.50;;;29.16
61189;BMP280;47054;39.716;2.904;2023-07-16T00:17:05;100047.59;;;29.19
61189;BMP280;47054;39.716;2.904;2023-07-16T00:19:50;100050.66;;;29.21
61189;BMP280;47054;39.716;2.904;2023-07-16T00:22:35;100050.19;;;29.23
61189;BMP280;47054;39.716;2.904;2023-07-16T00:25:20;100050.47;;;29.25
61189;BMP280;47054;39.716;2.904;2023-07-16T00:28:04;100045.31;;;29.27
61189;BMP280;47054;39.716;2.904;2023-07-16T00:30:49;100042.13;;;29.28
61189;BMP280;47054;39.716;2.904;2023-07-16T00:33:34;100052.13;;;29.31
61189;BMP280;47054;39.716;2.904;2023-07-16T00:36:19;100044.22;;;29.33
61189;BMP280;47054;39.716;2.904;2023-07-16T00:39:03;100043.34;;;29.36
61189;BMP280;47054;39.716;2.904;2023-07-16T00:41:47;100037.41;;;29.38
61189;BMP280;47054;39.716;2.904;2023-07-16T00:44:33;100029.53;;;29.40
61189;BMP280;47054;39.716;2.904;2023-07-16T00:47:17;100030.25;;;29.40
61189;BMP280;47054;39.716;2.904;2023-07-16T00:50:03;100034.53;;;29.41
61189;BMP280;47054;39.716;2.904;2023-07-16T00:52:48;100033.31;;;29.42
61189;BMP280;47054;39.716;2.904;2023-07-16T00:55:34;100030.13;;;29.44
61189;BMP280;47054;39.716;2.904;2023-07-16T00:58:19;100034.34;;;29.45
61189;BMP280;47054;39.716;2.904;2023-07-16T01:01:04;100029.50;;;29.49
61189;BMP280;47054;39.716;2.904;2023-07-16T01:03:49;100023.13;;;29.52
61189;BMP280;47054;39.716;2.904;2023-07-16T01:06:38;100012.03;;;29.55
61189;BMP280;47054;39.716;2.904;2023-07-16T01:09:24;100022.50;;;29.57
61189;BMP280;47054;39.716;2.904;2023-07-16T01:12:09;100015.81;;;29.58
61189;BMP280;47054;39.716;2.904;2023-07-16T01:14:56;100018.06;;;29.59
61189;BMP280;47054;39.716;2.904;2023-07-16T01:17:41;100014.31;;;29.57
61189;BMP280;47054;39.716;2.904;2023-07-16T01:20:26;99998.84;;;29.54
61189;BMP280;47054;39.716;2.904;2023-07-16T01:23:24;100003.84;;;29.55
61189;BMP280;47054;39.716;2.904;2023-07-16T01:30:04;100014.47;;;29.53
61189;BMP280;47054;39.716;2.904;2023-07-16T01:32:49;100014.66;;;29.50
61189;BMP280;47054;39.716;2.904;2023-07-16T01:35:35;100025.56;;;29.50
61189;BMP280;47054;39.716;2.904;2023-07-16T01:38:19;100039.66;;;29.48
61189;BMP280;47054;39.716;2.904;2023-07-16T01:41:05;100042.88;;;29.47
61189;BMP280;47054;39.716;2.904;2023-07-16T01:43:49;100045.28;;;29.45
61189;BMP280;47054;39.716;2.904;2023-07-16T01:46:34;100041.97;;;29.41
61189;BMP280;47054;39.716;2.904;2023-07-16T01:49:19;100048.34;;;29.38
61189;BMP280;47054;39.716;2.904;2023-07-16T01:52:05;100030.56;;;29.33
61189;BMP280;47054;39.716;2.904;2023-07-16T01:54:51;100033.47;;;29.30
61189;BMP280;47054;39.716;2.904;2023-07-16T01:57:39;100042.13;;;29.28
61189;BMP280;47054;39.716;2.904;2023-07-16T02:00:24;100030.16;;;29.26
61189;BMP280;47054;39.716;2.904;2023-07-16T02:03:11;100045.19;;;29.21
61189;BMP280;47054;39.716;2.904;2023-07-16T02:05:56;100049.13;;;29.11
61189;BMP280;47054;39.716;2.904;2023-07-16T02:08:41;100047.16;;;29.02
61189;BMP280;47054;39.716;2.904;2023-07-16T02:11:25;100038.19;;;28.84
61189;BMP280;47054;39.716;2.904;2023-07-16T02:14:10;100063.53;;;28.84
61189;BMP280;47054;39.716;2.904;2023-07-16T02:16:55;100055.81;;;28.74
61189;BMP280;47054;39.716;2.904;2023-07-16T02:19:40;100055.31;;;28.66
61189;BMP280;47054;39.716;2.904;2023-07-16T02:22:24;100054.09;;;28.58
61189;BMP280;47054;39.716;2.904;2023-07-16T02:25:09;100044.50;;;28.54
61189;BMP280;47054;39.716;2.904;2023-07-16T02:27:54;100040.88;;;28.48
61189;BMP280;47054;39.716;2.904;2023-07-16T02:30:40;100040.25;;;28.44
61189;BMP280;47054;39.716;2.904;2023-07-16T02:33:25;100045.84;;;28.40
61189;BMP280;47054;39.716;2.904;2023-07-16T02:36:10;100041.78;;;28.36
61189;BMP280;47054;39.716;2.904;2023-07-16T02:38:55;100043.25;;;28.37
61189;BMP280;47054;39.716;2.904;2023-07-16T02:41:40;100036.31;;;28.36
61189;BMP280;47054;39.716;2.904;2023-07-16T02:44:25;100035.56;;;28.35
61189;BMP280;47054;39.716;2.904;2023-07-16T02:47:10;100028.88;;;28.36
61189;BMP280;47054;39.716;2.904;2023-07-16T02:49:55;100031.16;;;28.38
61189;BMP280;47054;39.716;2.904;2023-07-16T02:52:39;100037.66;;;28.40
61189;BMP280;47054;39.716;2.904;2023-07-16T02:55:24;100023.16;;;28.43
61189;BMP280;47054;39.716;2.904;2023-07-16T02:58:09;100026.16;;;28.45
61189;BMP280;47054;39.716;2.904;2023-07-16T03:00:53;100026.03;;;28.49
61189;BMP280;47054;39.716;2.904;2023-07-16T03:03:39;100018.13;;;28.51
61189;BMP280;47054;39.716;2.904;2023-07-16T03:06:23;100019.66;;;28.52
61189;BMP280;47054;39.716;2.904;2023-07-16T03:09:09;100036.66;;;28.56
61189;BMP280;47054;39.716;2.904;2023-07-16T03:11:53;100038.91;;;28.57
61189;BMP280;47054;39.716;2.904;2023-07-16T03:14:38;100036.03;;;28.61
61189;BMP280;47054;39.716;2.904;2023-07-16T03:17:22;100045.00;;;28.61
61189;BMP280;47054;39.716;2.904;2023-07-16T03:20:08;100055.00;;;28.64
61189;BMP280;47054;39.716;2.904;2023-07-16T03:22:53;100063.94;;;28.65
61189;BMP280;47054;39.716;2.904;2023-07-16T03:25:37;100070.00;;;28.69
61189;BMP280;47054;39.716;2.904;2023-07-16T03:28:22;100063.34;;;28.70
61189;BMP280;47054;39.716;2.904;2023-07-16T03:31:07;100058.94;;;28.72
61189;BMP280;47054;39.716;2.904;2023-07-16T03:33:55;100048.38;;;28.74
61189;BMP280;47054;39.716;2.904;2023-07-16T03:36:41;100052.59;;;28.75
61189;BMP280;47054;39.716;2.904;2023-07-16T03:39:26;100060.78;;;28.75
61189;BMP280;47054;39.716;2.904;2023-07-16T03:42:12;100065.94;;;28.73
61189;BMP280;47054;39.716;2.904;2023-07-16T03:44:57;100059.09;;;28.78
61189;BMP280;47054;39.716;2.904;2023-07-16T03:47:41;100069.59;;;28.79
61189;BMP280;47054;39.716;2.904;2023-07-16T03:50:26;100061.53;;;28.76
61189;BMP280;47054;39.716;2.904;2023-07-16T03:53:13;100061.25;;;28.83
61189;BMP280;47054;39.716;2.904;2023-07-16T03:55:58;100042.16;;;28.83
61189;BMP280;47054;39.716;2.904;2023-07-16T03:58:42;100035.47;;;28.84
61189;BMP280;47054;39.716;2.904;2023-07-16T04:01:28;100036.97;;;28.85
61189;BMP280;47054;39.716;2.904;2023-07-16T19:24:39;100239.84;;;31.71
61189;BMP280;47054;39.716;2.904;2023-07-16T19:27:25;100249.81;;;31.98
61189;BMP280;47054;39.716;2.904;2023-07-16T19:30:10;100248.69;;;32.19
61189;BMP280;47054;39.716;2.904;2023-07-16T19:32:55;100255.16;;;32.36
61189;BMP280;47054;39.716;2.904;2023-07-16T19:35:40;100262.06;;;32.46
61189;BMP280;47054;39.716;2.904;2023-07-16T19:38:24;100258.16;;;32.52
61189;BMP280;47054;39.716;2.904;2023-07-16T19:41:09;100266.47;;;32.58
61189;BMP280;47054;39.716;2.904;2023-07-16T19:43:55;100268.25;;;32.61
61189;BMP280;47054;39.716;2.904;2023-07-16T19:46:39;100268.25;;;32.61
61189;BMP280;47054;39.716;2.904;2023-07-16T19:49:24;100264.28;;;32.62
61189;BMP280;47054;39.716;2.904;2023-07-16T19:52:09;100262.03;;;32.60
61189;BMP280;47054;39.716;2.904;2023-07-16T19:54:55;100265.25;;;32.59
61189;BMP280;47054;39.716;2.904;2023-07-16T19:57:44;100257.22;;;32.55
61189;BMP280;47054;39.716;2.904;2023-07-16T20:00:29;100272.94;;;32.55
61189;BMP280;47054;39.716;2.904;2023-07-16T20:03:14;100273.88;;;32.52
61189;BMP280;47054;39.716;2.904;2023-07-16T20:05:58;100274.84;;;32.49
61189;BMP280;47054;39.716;2.904;2023-07-16T20:08:43;100279.56;;;32.48
61189;BMP280;47054;39.716;2.904;2023-07-16T20:11:28;100282.50;;;32.45
61189;BMP280;47054;39.716;2.904;2023-07-16T20:14:13;100291.19;;;32.43
61189;BMP280;47054;39.716;2.904;2023-07-16T20:16:58;100284.66;;;32.41
61189;BMP280;47054;39.716;2.904;2023-07-16T20:19:43;100283.34;;;32.36
61189;BMP280;47054;39.716;2.904;2023-07-16T20:22:27;100293.03;;;32.32
61189;BMP280;47054;39.716;2.904;2023-07-16T20:25:15;100295.19;;;32.28
61189;BMP280;47054;39.716;2.904;2023-07-16T20:27:59;100291.91;;;32.24
61189;BMP280;47054;39.716;2.904;2023-07-16T20:30:44;100298.78;;;32.19
61189;BMP280;47054;39.716;2.904;2023-07-16T20:33:29;100302.47;;;32.16
61189;BMP280;47054;39.716;2.904;2023-07-16T20:36:14;100301.91;;;32.12
61189;BMP280;47054;39.716;2.904;2023-07-16T20:38:59;100296.59;;;32.09
61189;BMP280;47054;39.716;2.904;2023-07-16T20:41:44;100304.56;;;32.07
61189;BMP280;47054;39.716;2.904;2023-07-16T20:44:28;100307.78;;;32.05
61189;BMP280;47054;39.716;2.904;2023-07-16T20:47:13;100303.78;;;32.06
61189;BMP280;47054;39.716;2.904;2023-07-16T20:49:57;100282.13;;;31.94
61189;BMP280;47054;39.716;2.904;2023-07-16T20:52:43;100306.44;;;32.01
61189;BMP280;47054;39.716;2.904;2023-07-16T20:55:28;100303.69;;;32.01
61189;BMP280;47054;39.716;2.904;2023-07-16T20:58:13;100309.66;;;31.99
61189;BMP280;47054;39.716;2.904;2023-07-16T21:00:58;100315.66;;;31.98
61189;BMP280;47054;39.716;2.904;2023-07-16T21:03:43;100317.28;;;31.95
61189;BMP280;47054;39.716;2.904;2023-07-16T21:06:28;100312.47;;;31.90
61189;BMP280;47054;39.716;2.904;2023-07-16T21:09:13;100318.72;;;31.91
61189;BMP280;47054;39.716;2.904;2023-07-16T21:11:59;100298.59;;;31.79
61189;BMP280;47054;39.716;2.904;2023-07-16T21:14:44;100313.91;;;31.86
61189;BMP280;47054;39.716;2.904;2023-07-16T21:17:28;100316.38;;;31.84
61189;BMP280;47054;39.716;2.904;2023-07-16T21:20:13;100316.81;;;31.82
61189;BMP280;47054;39.716;2.904;2023-07-16T21:22:58;100321.84;;;31.84
61189;BMP280;47054;39.716;2.904;2023-07-16T21:25:42;100320.59;;;31.85
61189;BMP280;47054;39.716;2.904;2023-07-16T21:28:28;100323.31;;;31.85
61189;BMP280;47054;39.716;2.904;2023-07-16T21:31:13;100327.91;;;31.88
61189;BMP280;47054;39.716;2.904;2023-07-16T21:33:57;100316.63;;;31.86
61189;BMP280;47054;39.716;2.904;2023-07-16T21:36:42;100318.44;;;31.89
61189;BMP280;47054;39.716;2.904;2023-07-16T21:39:27;100321.69;;;31.87
61189;BMP280;47054;39.716;2.904;2023-07-16T21:42:11;100333.84;;;31.86
61189;BMP280;47054;39.716;2.904;2023-07-16T21:44:56;100339.78;;;31.85
61189;BMP280;47054;39.716;2.904;2023-07-16T21:47:40;100345.75;;;31.83
61189;BMP280;47054;39.716;2.904;2023-07-16T21:50:26;100342.25;;;31.83
61189;BMP280;47054;39.716;2.904;2023-07-16T21:53:14;100353.69;;;31.81
61189;BMP280;47054;39.716;2.904;2023-07-16T21:55:59;100348.09;;;31.76
61189;BMP280;47054;39.716;2.904;2023-07-16T21:58:43;100351.03;;;31.72
61189;BMP280;47054;39.716;2.904;2023-07-16T22:01:28;100370.72;;;31.71
61189;BMP280;47054;39.716;2.904;2023-07-16T22:04:12;100373.13;;;31.69
61189;BMP280;47054;39.716;2.904;2023-07-16T22:07:01;100368.13;;;31.67
61189;BMP280;47054;39.716;2.904;2023-07-16T22:09:46;100366.31;;;31.64
61189;BMP280;47054;39.716;2.904;2023-07-16T22:12:32;100375.47;;;31.61
61189;BMP280;47054;39.716;2.904;2023-07-16T22:15:17;100382.22;;;31.60
61189;BMP280;47054;39.716;2.904;2023-07-16T22:18:03;100391.06;;;31.55
61189;BMP280;47054;39.716;2.904;2023-07-16T22:20:48;100396.53;;;31.55
61189;BMP280;47054;39.716;2.904;2023-07-16T22:23:33;100400.94;;;31.53
61189;BMP280;47054;39.716;2.904;2023-07-16T22:26:18;100393.19;;;31.51
61189;BMP280;47054;39.716;2.904;2023-07-16T22:29:03;100397.13;;;31.50
61189;BMP280;47054;39.716;2.904;2023-07-16T22:31:48;100392.16;;;31.49
61189;BMP280;47054;39.716;2.904;2023-07-16T22:34:33;100397.81;;;31.45
61189;BMP280;47054;39.716;2.904;2023-07-16T22:37:18;100396.75;;;31.43
61189;BMP280;47054;39.716;2.904;2023-07-16T22:40:03;100399.66;;;31.39
61189;BMP280;47054;39.716;2.904;2023-07-16T22:42:49;100415.53;;;31.35
61189;BMP280;47054;39.716;2.904;2023-07-16T22:45:33;100396.50;;;31.32
61189;BMP280;47054;39.716;2.904;2023-07-16T22:48:19;100411.44;;;31.31
61189;BMP280;47054;39.716;2.904;2023-07-16T22:51:04;100407.94;;;31.30
61189;BMP280;47054;39.716;2.904;2023-07-16T22:53:49;100409.16;;;31.29
61189;BMP280;47054;39.716;2.904;2023-07-16T22:56:34;100398.19;;;31.29
61189;BMP280;47054;39.716;2.904;2023-07-16T22:59:19;100402.91;;;31.29
61189;BMP280;47054;39.716;2.904;2023-07-16T23:02:04;100402.16;;;31.28
61189;BMP280;47054;39.716;2.904;2023-07-16T23:04:48;100421.03;;;31.26
61189;BMP280;47054;39.716;2.904;2023-07-16T23:07:33;100406.56;;;31.26
61189;BMP280;47054;39.716;2.904;2023-07-16T23:10:17;100399.59;;;31.25
61189;BMP280;47054;39.716;2.904;2023-07-16T23:13:02;100403.09;;;31.25
61189;BMP280;47054;39.716;2.904;2023-07-16T23:15:46;100388.63;;;31.25
61189;BMP280;47054;39.716;2.904;2023-07-16T23:18:31;100389.84;;;31.24
61189;BMP280;47054;39.716;2.904;2023-07-16T23:21:15;100386.31;;;31.23
61189;BMP280;47054;39.716;2.904;2023-07-16T23:24:00;100384.84;;;31.22
61189;BMP280;47054;39.716;2.904;2023-07-16T23:26:45;100384.53;;;31.20
61189;BMP280;47054;39.716;2.904;2023-07-16T23:29:31;100379.53;;;31.19
61189;BMP280;47054;39.716;2.904;2023-07-16T23:37:16;100366.44;;;31.14
61189;BMP280;47054;39.716;2.904;2023-07-16T23:44:52;100361.78;;;31.05
61189;BMP280;47054;39.716;2.904;2023-07-16T23:48:50;100369.69;;;31.03
61189;BMP280;47054;39.716;2.904;2023-07-16T23:51:36;100377.31;;;30.99
61189;BMP280;47054;39.716;2.904;2023-07-16T23:59:16;100357.56;;;30.95
